createdAt,value
2023-05-21T00:00:12.329Z,10.83
2023-05-21T00:03:00.411Z,10.84
2023-05-21T00:05:28.473Z,10.85
2023-05-21T00:07:56.384Z,10.86
2023-05-21T00:10:33.606Z,10.86
2023-05-21T00:13:01.937Z,10.87
2023-05-21T00:15:29.996Z,10.88
2023-05-21T00:17:58.436Z,10.89
2023-05-21T00:20:29.502Z,10.90
2023-05-21T00:22:58.972Z,10.91
2023-05-21T00:25:26.986Z,10.93
2023-05-21T00:27:56.352Z,10.94
2023-05-21T00:30:24.851Z,10.95
2023-05-21T00:32:58.841Z,10.96
2023-05-21T00:35:27.337Z,10.96
2023-05-21T00:37:56.457Z,10.97
2023-05-21T00:40:27.149Z,10.97
2023-05-21T00:42:58.633Z,10.97
2023-05-21T00:45:30.006Z,10.97
2023-05-21T00:47:58.935Z,10.94
2023-05-21T00:50:31.059Z,10.93
2023-05-21T00:52:59.960Z,10.91
2023-05-21T00:55:28.489Z,10.89
2023-05-21T00:57:59.995Z,10.86
2023-05-21T01:00:28.915Z,10.82
2023-05-21T01:02:57.987Z,10.78
2023-05-21T01:05:29.779Z,10.74
2023-05-21T01:07:59.217Z,10.69
2023-05-21T01:10:29.384Z,10.64
2023-05-21T01:13:09.228Z,10.60
2023-05-21T01:15:39.438Z,10.55
2023-05-21T01:18:11.243Z,10.50
2023-05-21T01:20:39.711Z,10.44
2023-05-21T01:23:11.684Z,10.37
2023-05-21T01:25:42.464Z,10.32
2023-05-21T01:28:16.108Z,10.26
2023-05-21T01:30:44.934Z,10.21
2023-05-21T01:33:53.506Z,10.14
2023-05-21T01:36:31.178Z,10.07
2023-05-21T01:39:23.004Z,10.01
2023-05-21T01:41:56.828Z,9.95
2023-05-21T01:44:26.878Z,9.90
2023-05-21T01:47:00.954Z,9.85
2023-05-21T01:49:30.744Z,9.80
2023-05-21T01:52:09.857Z,9.74
2023-05-21T01:54:41.480Z,9.70
2023-05-21T01:57:23.278Z,9.65
2023-05-21T02:00:09.110Z,9.59
2023-05-21T02:02:47.369Z,9.53
2023-05-21T02:05:19.118Z,9.48
2023-05-21T02:07:48.361Z,9.45
2023-05-21T02:10:24.161Z,9.42
2023-05-21T02:12:52.969Z,9.38
2023-05-21T02:15:24.308Z,9.35
2023-05-21T02:17:58.477Z,9.32
2023-05-21T02:20:28.303Z,9.28
2023-05-21T02:22:57.046Z,9.26
2023-05-21T02:25:25.685Z,9.24
2023-05-21T02:28:00.016Z,9.21
2023-05-21T02:30:28.552Z,9.19
2023-05-21T02:32:59.128Z,9.15
2023-05-21T02:35:27.869Z,9.12
2023-05-21T02:38:17.432Z,9.11
2023-05-21T02:40:46.934Z,9.08
2023-05-21T02:43:16.280Z,9.08
2023-05-21T02:45:45.104Z,9.06
2023-05-21T02:48:14.133Z,9.06
2023-05-21T02:50:43.007Z,9.04
2023-05-21T02:53:25.988Z,9.03
2023-05-21T02:55:58.320Z,9.01
2023-05-21T02:58:29.257Z,9.00
2023-05-21T03:01:00.532Z,8.99
2023-05-21T03:03:29.777Z,8.98
2023-05-21T03:05:59.313Z,8.97
2023-05-21T03:08:32.098Z,8.97
2023-05-21T03:11:03.295Z,8.98
2023-05-21T03:13:31.632Z,8.99
2023-05-21T03:16:00.499Z,9.00
2023-05-21T03:18:29.326Z,9.01
2023-05-21T03:21:01.309Z,9.03
2023-05-21T03:23:33.083Z,9.04
2023-05-21T03:26:02.532Z,9.07
2023-05-21T03:28:31.672Z,9.10
2023-05-21T03:31:03.285Z,9.13
2023-05-21T03:33:42.466Z,9.17
2023-05-21T03:36:19.173Z,9.21
2023-05-21T03:38:47.683Z,9.25
2023-05-21T03:41:16.451Z,9.31
2023-05-21T03:43:47.085Z,9.36
2023-05-21T03:46:15.844Z,9.43
2023-05-21T03:49:05.292Z,9.50
2023-05-21T03:51:33.851Z,9.58
2023-05-21T03:54:04.695Z,9.65
2023-05-21T03:56:33.290Z,9.73
2023-05-21T03:59:01.753Z,9.81
2023-05-21T04:01:41.581Z,9.90
2023-05-21T04:04:11.146Z,10.00
2023-05-21T04:06:42.339Z,10.10
2023-05-21T04:09:10.951Z,10.21
2023-05-21T04:11:38.957Z,10.32
2023-05-21T04:14:07.656Z,10.45
2023-05-21T04:16:38.696Z,10.59
2023-05-21T04:19:07.755Z,10.73
2023-05-21T04:21:38.574Z,10.88
2023-05-21T04:24:07.425Z,11.03
2023-05-21T04:26:45.017Z,11.18
2023-05-21T04:29:13.900Z,11.34
2023-05-21T04:31:42.452Z,11.50
2023-05-21T04:34:13.357Z,11.66
2023-05-21T04:36:42.010Z,11.84
2023-05-21T04:39:10.251Z,12.01
2023-05-21T04:41:39.374Z,12.21
2023-05-21T04:44:08.044Z,12.44
2023-05-21T04:46:42.100Z,13.10
2023-05-21T04:49:10.417Z,14.24
2023-05-21T04:51:40.286Z,15.44
2023-05-21T04:54:08.890Z,16.63
2023-05-21T04:56:37.344Z,17.83
2023-05-21T04:59:06.496Z,18.94
2023-05-21T05:01:35.508Z,20.01
2023-05-21T05:04:07.386Z,21.04
2023-05-21T05:06:35.672Z,22.04
2023-05-21T05:09:04.726Z,22.98
2023-05-21T05:11:33.088Z,23.83
2023-05-21T05:14:01.328Z,24.60
2023-05-21T05:16:29.772Z,25.30
2023-05-21T05:18:58.653Z,25.99
2023-05-21T05:21:27.367Z,26.54
2023-05-21T05:23:58.543Z,27.03
2023-05-21T05:26:28.961Z,27.42
2023-05-21T05:28:57.361Z,27.65
2023-05-21T05:31:25.987Z,27.61
2023-05-21T05:33:55.350Z,27.30
2023-05-21T05:36:24.434Z,26.76
2023-05-21T05:38:53.939Z,26.20
2023-05-21T05:41:23.143Z,25.63
2023-05-21T05:43:51.843Z,25.03
2023-05-21T05:46:21.775Z,24.52
2023-05-21T05:48:52.734Z,23.99
2023-05-21T05:51:20.961Z,23.66
2023-05-21T06:09:07.158Z,22.69
2023-05-21T06:11:36.136Z,22.59
2023-05-21T06:14:04.625Z,22.50
2023-05-21T06:16:32.978Z,22.46
2023-05-21T06:19:04.690Z,22.44
2023-05-21T06:21:33.261Z,22.50
2023-05-21T06:24:02.452Z,22.58
2023-05-21T06:26:40.051Z,22.64
2023-05-21T06:29:08.807Z,22.62
2023-05-21T06:31:37.196Z,22.45
2023-05-21T06:34:06.131Z,22.37
2023-05-21T06:36:39.654Z,22.29
2023-05-21T06:39:10.367Z,22.26
2023-05-21T06:41:38.906Z,22.32
2023-05-21T06:44:26.900Z,22.39
2023-05-21T06:47:15.428Z,22.42
2023-05-21T06:49:43.738Z,22.50
2023-05-21T06:52:12.371Z,22.62
2023-05-21T06:54:41.133Z,22.80
2023-05-21T06:57:09.806Z,22.97
2023-05-21T06:59:38.529Z,23.10
2023-05-21T07:02:06.684Z,23.14
2023-05-21T07:04:36.051Z,23.28
2023-05-21T07:07:04.819Z,23.44
2023-05-21T07:09:33.459Z,23.63
2023-05-21T07:12:02.252Z,23.79
2023-05-21T07:14:30.469Z,23.96
2023-05-21T07:16:59.495Z,24.08
2023-05-21T07:19:27.924Z,24.18
2023-05-21T07:21:57.568Z,24.30
2023-05-21T07:24:27.779Z,24.42
2023-05-21T07:26:56.129Z,24.50
2023-05-21T07:29:24.920Z,24.58
2023-05-21T07:31:53.545Z,24.66
2023-05-21T07:34:22.159Z,24.76
2023-05-21T07:36:50.416Z,24.88
2023-05-21T07:39:18.773Z,24.99
2023-05-21T07:41:47.202Z,25.10
2023-05-21T07:44:16.374Z,25.18
2023-05-21T07:46:44.813Z,25.23
2023-05-21T07:49:17.082Z,25.31
2023-05-21T07:51:46.763Z,25.42
2023-05-21T07:54:15.186Z,25.53
2023-05-21T07:56:43.586Z,25.66
2023-05-21T07:59:17.521Z,25.73
2023-05-21T08:01:46.451Z,25.76
2023-05-21T08:04:15.008Z,25.73
2023-05-21T08:06:43.210Z,25.75
2023-05-21T08:09:12.286Z,25.75
2023-05-21T08:11:40.648Z,25.78
2023-05-21T08:14:09.029Z,25.83
2023-05-21T08:16:37.891Z,25.96
2023-05-21T08:19:06.407Z,26.08
2023-05-21T08:21:34.714Z,26.20
2023-05-21T08:24:03.147Z,26.35
2023-05-21T08:26:34.441Z,26.46
2023-05-21T08:29:03.405Z,26.55
2023-05-21T08:31:32.103Z,26.65
2023-05-21T08:34:00.279Z,26.74
2023-05-21T08:36:39.292Z,26.86
2023-05-21T08:39:14.121Z,26.95
2023-05-21T08:41:49.783Z,27.01
2023-05-21T08:44:21.828Z,27.07
2023-05-21T08:46:51.437Z,27.15
2023-05-21T08:49:27.324Z,27.23
2023-05-21T08:51:58.091Z,27.29
2023-05-21T08:54:28.193Z,27.38
2023-05-21T08:56:58.452Z,27.46
2023-05-21T08:59:27.520Z,27.49
2023-05-21T09:01:57.682Z,27.49
2023-05-21T09:04:32.292Z,27.58
2023-05-21T09:07:03.041Z,27.62
2023-05-21T09:09:58.544Z,27.64
2023-05-21T09:12:28.429Z,27.62
2023-05-21T09:14:58.846Z,27.58
2023-05-21T09:17:31.640Z,27.50
2023-05-21T09:20:12.651Z,27.37
2023-05-21T09:22:44.467Z,27.24
2023-05-21T09:25:15.491Z,27.27
2023-05-21T09:27:44.093Z,27.24
2023-05-21T09:30:16.030Z,27.18
2023-05-21T09:32:46.318Z,27.15
2023-05-21T09:35:15.375Z,27.23
2023-05-21T09:37:47.353Z,27.35
2023-05-21T09:40:21.544Z,27.44
2023-05-21T09:42:52.845Z,27.51
2023-05-21T09:45:22.432Z,27.46
2023-05-21T09:47:52.760Z,27.42
2023-05-21T09:50:23.024Z,27.41
2023-05-21T09:52:53.090Z,27.41
2023-05-21T09:55:26.576Z,27.38
2023-05-21T09:57:54.987Z,27.44
2023-05-21T10:00:25.377Z,27.54
2023-05-21T10:03:02.091Z,27.51
2023-05-21T10:05:31.092Z,27.48
2023-05-21T10:08:04.138Z,27.46
2023-05-21T10:10:32.818Z,27.50
2023-05-21T10:13:07.075Z,27.62
2023-05-21T10:15:42.577Z,27.76
2023-05-21T10:18:15.318Z,27.87
2023-05-21T10:20:44.560Z,27.92
2023-05-21T10:23:13.327Z,27.98
2023-05-21T10:25:42.472Z,27.99
2023-05-21T10:28:14.257Z,28.02
2023-05-21T10:30:43.514Z,28.09
2023-05-21T10:33:16.572Z,28.06
2023-05-21T10:35:48.257Z,28.01
2023-05-21T10:38:19.546Z,27.98
2023-05-21T10:40:51.043Z,27.97
2023-05-21T10:43:38.526Z,28.00
2023-05-21T10:46:36.755Z,28.04
2023-05-21T10:49:07.395Z,28.12
2023-05-21T10:52:29.936Z,28.07
2023-05-21T10:55:07.932Z,27.99
2023-05-21T10:57:59.261Z,27.94
2023-05-21T11:00:28.555Z,27.92
2023-05-21T11:02:58.206Z,27.92
2023-05-21T11:06:02.899Z,27.92
2023-05-21T11:08:34.569Z,27.98
2023-05-21T11:11:03.425Z,28.02
2023-05-21T11:13:49.155Z,28.06
2023-05-21T11:16:18.251Z,28.14
2023-05-21T11:18:46.415Z,28.19
2023-05-21T11:21:17.141Z,28.24
2023-05-21T11:23:51.622Z,28.25
2023-05-21T11:26:24.585Z,28.31
2023-05-21T11:29:05.063Z,28.38
2023-05-21T11:31:38.706Z,28.43
2023-05-21T11:34:28.994Z,28.41
2023-05-21T11:37:27.854Z,28.38
2023-05-21T11:40:15.833Z,28.36
2023-05-21T11:42:49.122Z,28.34
2023-05-21T11:45:22.617Z,28.41
2023-05-21T11:47:52.097Z,28.42
2023-05-21T11:50:20.955Z,28.34
2023-05-21T11:52:49.953Z,28.22
2023-05-21T11:55:26.094Z,28.02
2023-05-21T11:57:55.505Z,27.86
2023-05-21T12:00:23.712Z,27.69
2023-05-21T12:02:53.004Z,27.53
2023-05-21T12:05:21.995Z,27.40
2023-05-21T12:07:50.508Z,27.30
2023-05-21T12:10:23.732Z,27.23
2023-05-21T12:12:55.833Z,27.18
2023-05-21T12:15:26.969Z,27.13
2023-05-21T12:17:55.493Z,27.11
2023-05-21T12:20:26.497Z,27.07
2023-05-21T12:22:54.480Z,27.12
2023-05-21T12:25:22.668Z,27.23
2023-05-21T12:27:58.101Z,27.35
2023-05-21T12:30:27.170Z,27.48
2023-05-21T12:32:57.995Z,27.61
2023-05-21T12:35:26.510Z,27.72
2023-05-21T12:37:54.546Z,27.83
2023-05-21T12:40:35.217Z,27.95
2023-05-21T12:43:04.330Z,28.09
2023-05-21T12:45:33.427Z,28.23
2023-05-21T12:48:02.402Z,28.35
2023-05-21T12:50:32.683Z,28.44
2023-05-21T12:53:01.342Z,28.40
2023-05-21T12:55:31.570Z,28.31
2023-05-21T12:58:09.011Z,28.28
2023-05-21T13:00:38.055Z,28.34
2023-05-21T13:03:07.051Z,28.38
2023-05-21T13:05:36.010Z,28.36
2023-05-21T13:08:04.936Z,28.32
2023-05-21T13:10:32.965Z,28.30
2023-05-21T13:13:01.864Z,28.18
2023-05-21T13:15:30.043Z,27.98
2023-05-21T13:17:58.995Z,27.79
2023-05-21T13:20:28.021Z,27.60
2023-05-21T13:22:56.252Z,27.41
2023-05-21T13:25:29.144Z,27.23
2023-05-21T13:27:59.324Z,27.10
2023-05-21T13:30:27.566Z,26.98
2023-05-21T13:32:56.052Z,26.90
2023-05-21T13:35:24.822Z,26.83
2023-05-21T13:37:52.863Z,26.76
2023-05-21T13:40:22.189Z,26.66
2023-05-21T13:42:50.962Z,26.54
2023-05-21T13:45:21.283Z,26.48
2023-05-21T13:47:49.653Z,26.44
2023-05-21T13:50:18.027Z,26.36
2023-05-21T13:52:46.485Z,26.29
2023-05-21T13:55:16.150Z,26.20
2023-05-21T13:57:46.190Z,26.10
2023-05-21T14:00:16.148Z,26.03
2023-05-21T14:02:45.217Z,25.96
2023-05-21T14:05:14.071Z,25.88
2023-05-21T14:07:42.993Z,25.75
2023-05-21T14:10:12.018Z,25.65
2023-05-21T14:12:41.165Z,25.59
2023-05-21T14:15:09.858Z,25.55
2023-05-21T14:17:40.757Z,25.55
2023-05-21T14:20:09.907Z,25.52
2023-05-21T14:22:47.307Z,25.46
2023-05-21T14:25:15.715Z,25.42
2023-05-21T14:27:43.848Z,25.36
2023-05-21T14:30:12.426Z,25.32
2023-05-21T14:32:43.389Z,25.30
2023-05-21T14:35:11.906Z,25.30
2023-05-21T14:37:40.189Z,25.30
2023-05-21T14:40:09.399Z,25.30
2023-05-21T14:42:37.557Z,25.29
2023-05-21T14:45:18.162Z,25.29
2023-05-21T14:47:47.855Z,25.28
2023-05-21T14:50:16.997Z,25.28
2023-05-21T14:52:45.208Z,25.27
2023-05-21T14:55:13.873Z,25.22
2023-05-21T14:57:42.242Z,25.18
2023-05-21T15:00:12.255Z,25.17
2023-05-21T15:02:40.696Z,25.16
2023-05-21T15:05:09.296Z,25.12
2023-05-21T15:07:37.561Z,25.05
2023-05-21T15:10:06.417Z,24.96
2023-05-21T15:12:34.533Z,24.86
2023-05-21T15:15:02.805Z,24.76
2023-05-21T15:17:31.099Z,24.67
2023-05-21T15:20:01.534Z,24.53
2023-05-21T15:22:29.802Z,24.37
2023-05-21T15:24:58.057Z,24.18
2023-05-21T15:27:26.580Z,23.99
2023-05-21T15:29:54.643Z,23.82
2023-05-21T15:32:22.848Z,23.62
2023-05-21T15:34:51.874Z,23.46
2023-05-21T15:37:20.218Z,23.31
2023-05-21T15:39:51.250Z,23.10
2023-05-21T15:42:19.832Z,22.89
2023-05-21T15:44:48.329Z,22.72
2023-05-21T15:47:16.710Z,22.59
2023-05-21T15:49:44.722Z,22.48
2023-05-21T15:52:12.896Z,22.38
2023-05-21T15:54:40.831Z,22.32
2023-05-21T15:57:09.133Z,22.28
2023-05-21T15:59:37.263Z,22.21
2023-05-21T16:02:05.525Z,22.17
2023-05-21T16:04:33.997Z,22.11
2023-05-21T16:07:05.655Z,22.05
2023-05-21T16:09:34.295Z,21.96
2023-05-21T16:12:02.649Z,21.87
2023-05-21T16:14:30.805Z,21.79
2023-05-21T16:16:58.916Z,21.68
2023-05-21T16:19:27.562Z,21.54
2023-05-21T16:21:55.892Z,21.44
2023-05-21T16:24:24.336Z,21.32
2023-05-21T16:26:52.686Z,21.21
2023-05-21T16:29:22.151Z,21.12
2023-05-21T16:31:50.471Z,21.07
2023-05-21T16:34:18.712Z,21.03
2023-05-21T16:36:46.746Z,20.97
2023-05-21T16:39:14.821Z,20.91
2023-05-21T16:41:43.497Z,20.88
2023-05-21T16:44:11.596Z,20.87
2023-05-21T16:46:39.991Z,20.81
2023-05-21T16:49:08.174Z,20.78
2023-05-21T16:51:36.549Z,20.75
2023-05-21T16:54:05.579Z,20.70
2023-05-21T16:56:33.878Z,20.65
2023-05-21T16:59:02.048Z,20.58
2023-05-21T17:01:30.255Z,20.51
2023-05-21T17:03:58.941Z,20.43
2023-05-21T17:06:27.260Z,20.36
2023-05-21T17:08:55.503Z,20.29
2023-05-21T17:11:23.771Z,20.20
2023-05-21T17:13:51.955Z,20.11
2023-05-21T17:16:23.754Z,20.01
2023-05-21T17:18:51.922Z,19.92
2023-05-21T17:21:29.071Z,19.84
2023-05-21T17:23:57.157Z,19.76
2023-05-21T17:26:25.155Z,19.65
2023-05-21T17:28:53.588Z,19.54
2023-05-21T17:31:22.392Z,19.44
2023-05-21T17:33:50.652Z,19.35
2023-05-21T17:36:18.941Z,19.24
2023-05-21T17:38:47.218Z,19.14
2023-05-21T17:41:18.020Z,19.05
2023-05-21T17:43:46.332Z,18.93
2023-05-21T17:46:17.633Z,18.82
2023-05-21T17:49:08.377Z,18.72
2023-05-21T17:51:37.444Z,18.60
2023-05-21T17:54:07.192Z,18.48
2023-05-21T17:56:39.211Z,18.36
2023-05-21T17:59:11.207Z,18.23
2023-05-21T18:02:02.973Z,18.10
2023-05-21T18:04:36.774Z,17.95
2023-05-21T18:07:06.088Z,17.81
2023-05-21T18:09:43.008Z,17.68
2023-05-21T18:12:11.513Z,17.55
2023-05-21T18:14:40.185Z,17.41
2023-05-21T18:17:14.075Z,17.26
2023-05-21T18:19:42.894Z,17.13
2023-05-21T18:22:22.627Z,16.96
2023-05-21T18:24:54.006Z,16.77
2023-05-21T18:27:42.678Z,16.61
2023-05-21T18:30:23.208Z,16.47
2023-05-21T18:32:51.738Z,16.33
2023-05-21T18:35:23.849Z,16.20
2023-05-21T18:38:04.429Z,16.08
2023-05-21T18:40:41.249Z,15.94
2023-05-21T18:43:11.162Z,15.83
2023-05-21T18:45:42.313Z,15.71
2023-05-21T18:48:12.341Z,15.62
2023-05-21T18:50:41.436Z,15.53
2023-05-21T18:53:13.399Z,15.43
2023-05-21T18:56:07.493Z,15.32
2023-05-21T18:58:39.294Z,15.22
2023-05-21T19:01:10.857Z,15.15
2023-05-21T19:03:52.564Z,15.08
2023-05-21T19:06:25.398Z,15.00
2023-05-21T19:08:54.403Z,14.95
2023-05-21T19:11:27.825Z,14.90
2023-05-21T19:14:04.105Z,14.85
2023-05-21T19:16:32.804Z,14.81
2023-05-21T19:19:02.417Z,14.78
2023-05-21T19:21:31.755Z,14.75
2023-05-21T19:23:59.961Z,14.74
2023-05-21T19:26:31.863Z,14.74
2023-05-21T19:29:00.561Z,14.73
2023-05-21T19:31:29.233Z,14.74
2023-05-21T19:33:57.826Z,14.73
2023-05-21T19:36:52.106Z,14.70
2023-05-21T19:39:22.158Z,14.72
2023-05-21T19:41:52.995Z,14.75
2023-05-21T19:44:21.304Z,14.81
2023-05-21T19:46:50.173Z,14.89
2023-05-21T19:49:20.138Z,14.98
2023-05-21T19:51:54.924Z,15.06
2023-05-21T19:54:24.470Z,15.15
2023-05-21T19:56:53.449Z,15.22
2023-05-21T19:59:21.673Z,15.26
2023-05-21T20:01:55.743Z,15.30
2023-05-21T20:04:25.859Z,15.31
2023-05-21T20:06:54.599Z,15.30
2023-05-21T20:09:23.222Z,15.28
2023-05-21T20:11:54.126Z,15.24
2023-05-21T20:14:22.464Z,15.20
2023-05-21T20:16:58.739Z,15.14
2023-05-21T20:19:28.237Z,15.09
2023-05-21T20:22:04.990Z,15.01
2023-05-21T20:24:33.470Z,14.91
2023-05-21T20:27:02.318Z,14.81
2023-05-21T20:29:30.643Z,14.71
2023-05-21T20:32:01.893Z,14.60
2023-05-21T20:34:40.549Z,14.47
2023-05-21T20:37:15.821Z,14.33
2023-05-21T20:39:51.423Z,14.23
2023-05-21T20:42:28.743Z,14.12
2023-05-21T20:45:06.257Z,14.00
2023-05-21T20:47:38.636Z,13.90
2023-05-21T20:50:07.839Z,13.79
2023-05-21T20:52:36.461Z,13.68
2023-05-21T20:55:06.056Z,13.58
2023-05-21T20:57:43.788Z,13.51
2023-05-21T21:00:12.995Z,13.41
2023-05-21T21:02:41.925Z,13.34
2023-05-21T21:05:11.691Z,13.26
2023-05-21T21:07:42.190Z,13.19
2023-05-21T21:10:12.209Z,13.11
2023-05-21T21:12:40.517Z,13.03
2023-05-21T21:15:11.745Z,12.96
2023-05-21T21:17:52.895Z,12.88
2023-05-21T21:20:23.973Z,12.80
2023-05-21T21:22:52.611Z,12.72
2023-05-21T21:25:21.073Z,12.65
2023-05-21T21:27:52.610Z,12.56
2023-05-21T21:30:21.458Z,12.49
2023-05-21T21:32:50.747Z,12.43
2023-05-21T21:35:22.596Z,12.35
2023-05-21T21:37:51.140Z,12.29
2023-05-21T21:40:20.154Z,12.23
2023-05-21T21:42:48.726Z,12.17
2023-05-21T21:45:17.158Z,12.10
2023-05-21T21:47:45.795Z,12.03
2023-05-21T21:50:19.881Z,11.99
2023-05-21T21:52:49.186Z,11.93
2023-05-21T21:55:19.073Z,11.88
2023-05-21T21:57:47.306Z,11.83
2023-05-21T22:00:18.813Z,11.76
2023-05-21T22:02:57.301Z,11.69
2023-05-21T22:05:26.148Z,11.64
2023-05-21T22:07:59.434Z,11.60
2023-05-21T22:10:27.638Z,11.55
2023-05-21T22:12:56.442Z,11.51
2023-05-21T22:15:25.379Z,11.47
2023-05-21T22:17:57.553Z,11.41
2023-05-21T22:20:38.360Z,11.37
2023-05-21T22:23:07.036Z,11.32
2023-05-21T22:25:38.577Z,11.26
2023-05-21T22:28:09.420Z,11.23
2023-05-21T22:30:58.526Z,11.18
2023-05-21T22:33:32.467Z,11.14
2023-05-21T22:36:06.232Z,11.11
2023-05-21T22:38:45.322Z,11.07
2023-05-21T22:41:17.126Z,11.04
2023-05-21T22:43:45.634Z,11.02
2023-05-21T22:46:14.082Z,10.99
2023-05-21T22:48:42.572Z,10.96
2023-05-21T22:51:11.411Z,10.93
2023-05-21T22:53:39.963Z,10.90
2023-05-21T22:56:08.244Z,10.87
2023-05-21T22:58:36.873Z,10.85
2023-05-21T23:01:05.557Z,10.82
2023-05-21T23:03:33.835Z,10.79
2023-05-21T23:06:02.548Z,10.78
2023-05-21T23:08:31.283Z,10.77
2023-05-21T23:10:59.472Z,10.77
2023-05-21T23:13:27.771Z,10.77
2023-05-21T23:15:58.977Z,10.77
2023-05-21T23:18:27.418Z,10.78
2023-05-21T23:20:57.192Z,10.80
2023-05-21T23:23:25.755Z,10.82
2023-05-21T23:25:57.879Z,10.86
2023-05-21T23:28:27.507Z,10.90
2023-05-21T23:30:55.602Z,10.94
2023-05-21T23:33:24.281Z,10.97
2023-05-21T23:35:53.037Z,11.01
2023-05-21T23:38:21.480Z,11.05
2023-05-21T23:40:52.194Z,11.08
2023-05-21T23:43:20.809Z,11.12
2023-05-21T23:45:50.859Z,11.15
2023-05-21T23:48:19.725Z,11.18
2023-05-21T23:50:48.405Z,11.21
2023-05-21T23:53:17.627Z,11.24
2023-05-21T23:55:45.497Z,11.26
2023-05-21T23:58:14.422Z,11.27
